createdAt,value
2022-11-24T00:00:53.461Z,84.14
2022-11-24T00:03:21.309Z,84.45
2022-11-24T00:05:48.749Z,83.80
2022-11-24T00:08:15.614Z,83.95
2022-11-24T00:10:42.549Z,83.81
2022-11-24T00:13:09.449Z,83.07
2022-11-24T00:15:36.356Z,83.22
2022-11-24T00:18:03.283Z,82.95
2022-11-24T00:20:30.267Z,83.69
2022-11-24T00:22:57.303Z,83.29
2022-11-24T00:25:24.175Z,82.93
2022-11-24T00:27:52.553Z,83.86
2022-11-24T00:30:19.406Z,85.07
2022-11-24T00:32:46.287Z,85.31
2022-11-24T00:35:13.172Z,84.07
2022-11-24T00:37:40.012Z,84.79
2022-11-24T00:40:07.738Z,85.24
2022-11-24T00:42:34.633Z,85.05
2022-11-24T00:45:12.900Z,83.92
2022-11-24T00:47:40.644Z,84.04
2022-11-24T00:50:08.015Z,84.44
2022-11-24T00:52:34.943Z,84.41
2022-11-24T00:55:01.840Z,84.10
2022-11-24T00:57:28.725Z,85.29
2022-11-24T00:59:55.575Z,85.83
2022-11-24T01:02:22.479Z,85.20
2022-11-24T01:04:49.386Z,84.20
2022-11-24T01:07:16.276Z,84.00
2022-11-24T01:09:45.706Z,84.51
2022-11-24T01:12:12.571Z,84.36
2022-11-24T01:14:39.442Z,84.41
2022-11-24T01:17:06.448Z,84.56
2022-11-24T01:19:33.462Z,85.33
2022-11-24T01:22:00.308Z,84.93
2022-11-24T01:24:27.173Z,84.08
2022-11-24T01:26:54.102Z,84.00
2022-11-24T01:29:21.133Z,82.58
2022-11-24T01:31:48.098Z,84.06
2022-11-24T01:34:15.017Z,85.16
2022-11-24T01:36:41.929Z,84.48
2022-11-24T01:39:08.895Z,84.43
2022-11-24T01:41:35.939Z,84.49
2022-11-24T01:44:24.632Z,84.49
2022-11-24T01:47:07.262Z,84.04
2022-11-24T01:49:41.190Z,84.60
2022-11-24T01:52:18.946Z,84.69
2022-11-24T01:54:51.939Z,86.98
2022-11-24T01:57:26.351Z,87.09
2022-11-24T01:59:59.032Z,86.89
2022-11-24T02:02:29.660Z,87.30
2022-11-24T02:05:06.073Z,86.16
2022-11-24T02:07:33.965Z,86.34
2022-11-24T02:10:09.797Z,86.73
2022-11-24T02:12:38.056Z,88.02
2022-11-24T02:15:05.444Z,88.15
2022-11-24T02:17:32.329Z,87.33
2022-11-24T02:20:02.280Z,87.92
2022-11-24T02:22:34.828Z,86.90
2022-11-24T02:25:15.557Z,85.75
2022-11-24T02:27:49.382Z,85.31
2022-11-24T02:30:19.517Z,86.26
2022-11-24T02:32:46.379Z,87.07
2022-11-24T02:35:13.811Z,88.12
2022-11-24T02:37:40.763Z,88.42
2022-11-24T02:40:08.495Z,87.95
2022-11-24T02:42:40.478Z,86.60
2022-11-24T02:45:09.560Z,87.07
2022-11-24T02:47:36.417Z,87.55
2022-11-24T02:50:03.875Z,86.85
2022-11-24T02:52:30.745Z,86.95
2022-11-24T02:54:57.708Z,85.89
2022-11-24T02:57:24.593Z,85.79
2022-11-24T02:59:51.512Z,86.55
2022-11-24T03:02:18.415Z,86.61
2022-11-24T03:04:45.297Z,86.20
2022-11-24T03:07:12.237Z,86.45
2022-11-24T03:09:39.253Z,87.25
2022-11-24T03:12:06.732Z,88.18
2022-11-24T03:14:33.904Z,88.88
2022-11-24T03:17:00.902Z,89.13
2022-11-24T03:19:27.756Z,90.39
2022-11-24T03:21:54.623Z,91.30
2022-11-24T03:24:21.591Z,91.78
2022-11-24T03:26:48.498Z,91.87
2022-11-24T03:29:15.405Z,92.03
2022-11-24T03:31:42.446Z,93.13
2022-11-24T03:34:09.696Z,93.33
2022-11-24T03:36:36.571Z,94.37
2022-11-24T03:39:03.554Z,94.77
2022-11-24T03:41:30.383Z,94.94
2022-11-24T03:43:57.239Z,94.34
2022-11-24T03:46:24.110Z,94.56
2022-11-24T03:48:50.980Z,94.89
2022-11-24T03:51:17.851Z,94.49
2022-11-24T03:53:44.712Z,94.86
2022-11-24T03:56:11.546Z,95.14
2022-11-24T03:58:38.472Z,95.09
2022-11-24T04:01:05.439Z,94.92
2022-11-24T04:03:32.324Z,94.71
2022-11-24T04:05:59.194Z,94.85
2022-11-24T04:08:26.115Z,95.59
2022-11-24T04:10:54.397Z,94.67
2022-11-24T04:13:23.862Z,95.50
2022-11-24T04:15:51.319Z,95.58
2022-11-24T04:18:18.574Z,95.67
2022-11-24T04:20:45.746Z,95.50
2022-11-24T04:23:12.597Z,95.27
2022-11-24T04:25:39.635Z,95.42
2022-11-24T04:28:08.824Z,95.77
2022-11-24T04:30:36.316Z,95.31
2022-11-24T04:33:03.253Z,95.82
2022-11-24T04:35:30.293Z,95.21
2022-11-24T04:37:57.267Z,95.97
2022-11-24T04:40:24.152Z,95.99
2022-11-24T04:42:55.252Z,95.72
2022-11-24T04:45:23.317Z,95.88
2022-11-24T04:47:50.308Z,95.89
2022-11-24T04:50:17.313Z,95.95
2022-11-24T04:52:44.147Z,95.88
2022-11-24T04:55:11.307Z,95.49
2022-11-24T04:57:38.779Z,95.99
2022-11-24T05:00:07.692Z,95.50
2022-11-24T05:02:34.828Z,95.42
2022-11-24T05:05:01.705Z,95.83
2022-11-24T05:07:28.653Z,95.41
2022-11-24T05:10:14.110Z,95.96
2022-11-24T05:12:41.135Z,96.05
2022-11-24T05:15:08.589Z,95.69
2022-11-24T05:17:37.663Z,95.67
2022-11-24T05:20:07.228Z,96.08
2022-11-24T05:22:34.329Z,96.24
2022-11-24T05:25:01.816Z,95.59
2022-11-24T05:27:29.163Z,95.53
2022-11-24T05:29:56.354Z,95.66
2022-11-24T05:32:23.727Z,95.73
2022-11-24T05:34:56.595Z,96.28
2022-11-24T05:37:25.683Z,96.37
2022-11-24T05:39:54.665Z,96.58
2022-11-24T05:42:46.197Z,96.35
2022-11-24T05:45:19.491Z,96.35
2022-11-24T05:47:47.157Z,96.39
2022-11-24T05:50:17.047Z,96.47
2022-11-24T05:52:44.082Z,96.26
2022-11-24T05:55:15.198Z,96.89
2022-11-24T05:57:42.754Z,96.63
2022-11-24T06:00:30.097Z,96.41
2022-11-24T06:02:58.540Z,96.52
2022-11-24T06:05:26.683Z,96.17
2022-11-24T06:07:54.217Z,96.11
2022-11-24T06:10:24.052Z,96.13
2022-11-24T06:12:51.179Z,96.47
2022-11-24T06:15:18.211Z,96.24
2022-11-24T06:17:45.331Z,96.34
2022-11-24T06:20:12.404Z,96.27
2022-11-24T06:22:39.374Z,96.33
2022-11-24T06:25:06.506Z,95.93
2022-11-24T06:27:33.440Z,96.38
2022-11-24T06:30:00.923Z,96.29
2022-11-24T06:32:27.867Z,96.10
2022-11-24T06:34:54.728Z,95.81
2022-11-24T06:37:21.658Z,96.05
2022-11-24T06:39:49.402Z,95.85
2022-11-24T06:42:19.200Z,96.21
2022-11-24T06:44:47.508Z,95.83
2022-11-24T06:47:15.390Z,95.94
2022-11-24T06:49:42.220Z,95.62
2022-11-24T06:52:09.165Z,95.28
2022-11-24T06:54:36.403Z,95.58
2022-11-24T06:57:03.691Z,95.91
2022-11-24T06:59:30.574Z,95.98
2022-11-24T07:01:57.651Z,95.38
2022-11-24T07:04:24.592Z,95.81
2022-11-24T07:06:51.448Z,95.34
2022-11-24T07:09:18.541Z,95.69
2022-11-24T07:11:45.516Z,95.40
2022-11-24T07:14:12.826Z,95.39
2022-11-24T07:16:40.320Z,95.09
2022-11-24T07:19:07.205Z,95.02
2022-11-24T07:21:34.172Z,95.22
2022-11-24T07:24:01.137Z,95.23
2022-11-24T07:26:28.176Z,95.32
2022-11-24T07:28:55.121Z,94.85
2022-11-24T07:31:25.335Z,94.86
2022-11-24T07:33:54.022Z,94.60
2022-11-24T07:36:22.276Z,93.96
2022-11-24T07:38:49.540Z,94.07
2022-11-24T07:41:19.641Z,93.92
2022-11-24T07:43:47.269Z,93.94
2022-11-24T07:46:15.893Z,93.74
2022-11-24T07:48:42.928Z,93.60
2022-11-24T07:51:09.976Z,92.86
2022-11-24T07:53:37.654Z,92.49
2022-11-24T07:56:06.518Z,92.59
2022-11-24T07:58:36.109Z,92.21
2022-11-24T08:01:29.322Z,91.05
2022-11-24T08:03:56.356Z,90.62
2022-11-24T08:06:26.138Z,90.94
2022-11-24T08:08:56.855Z,91.17
2022-11-24T08:11:24.372Z,91.25
2022-11-24T08:13:51.691Z,90.21
2022-11-24T08:16:20.465Z,90.02
2022-11-24T08:18:52.218Z,89.26
2022-11-24T08:21:19.814Z,89.09
2022-11-24T08:23:46.813Z,89.08
2022-11-24T08:26:17.785Z,88.68
2022-11-24T08:28:46.175Z,88.83
2022-11-24T08:31:15.560Z,88.26
2022-11-24T08:33:43.087Z,88.48
2022-11-24T08:36:15.554Z,89.35
2022-11-24T08:38:43.231Z,88.97
2022-11-24T08:41:13.485Z,88.52
2022-11-24T08:43:41.083Z,88.88
2022-11-24T08:46:11.348Z,89.08
2022-11-24T08:48:38.492Z,88.66
2022-11-24T08:51:13.724Z,89.16
2022-11-24T08:53:41.356Z,89.41
2022-11-24T08:56:09.703Z,88.73
2022-11-24T08:58:37.594Z,89.42
2022-11-24T09:01:16.269Z,88.77
2022-11-24T09:03:50.072Z,88.31
2022-11-24T09:06:22.988Z,88.55
2022-11-24T09:08:50.162Z,88.55
2022-11-24T09:11:17.825Z,88.20
2022-11-24T09:13:44.936Z,87.58
2022-11-24T09:16:18.281Z,87.66
2022-11-24T09:18:45.475Z,87.27
2022-11-24T09:21:20.885Z,87.25
2022-11-24T09:23:49.554Z,86.80
2022-11-24T09:26:20.202Z,86.41
2022-11-24T09:28:48.224Z,84.99
2022-11-24T09:31:17.884Z,86.22
2022-11-24T09:33:45.678Z,84.47
2022-11-24T09:36:14.130Z,85.12
2022-11-24T09:38:41.425Z,84.60
2022-11-24T09:41:39.404Z,84.69
2022-11-24T09:44:31.198Z,86.12
2022-11-24T10:18:03.790Z,88.88
2022-11-24T10:20:30.681Z,88.35
2022-11-24T10:23:39.919Z,87.64
2022-11-24T10:26:20.171Z,86.47
2022-11-24T10:28:55.917Z,86.53
2022-11-24T10:31:31.387Z,86.68
2022-11-24T10:34:10.522Z,86.26
2022-11-24T10:36:49.594Z,86.70
2022-11-24T10:39:36.600Z,86.29
2022-11-24T10:42:15.873Z,87.41
2022-11-24T10:44:43.670Z,88.07
2022-11-24T10:47:22.969Z,88.38
2022-11-24T10:49:56.016Z,88.30
2022-11-24T10:52:25.011Z,88.32
2022-11-24T10:55:00.190Z,88.79
2022-11-24T10:57:38.519Z,88.50
2022-11-24T11:00:25.714Z,88.71
2022-11-24T11:03:11.153Z,90.35
2022-11-24T11:05:44.538Z,90.60
2022-11-24T11:08:14.458Z,91.71
2022-11-24T11:10:43.110Z,92.01
2022-11-24T11:13:30.359Z,91.92
2022-11-24T11:15:58.855Z,91.53
2022-11-24T11:18:33.649Z,92.76
2022-11-24T11:21:02.607Z,92.22
2022-11-24T11:23:32.660Z,91.93
2022-11-24T11:26:18.042Z,91.91
2022-11-24T11:35:12.242Z,90.82
2022-11-24T11:37:39.307Z,90.99
2022-11-24T11:40:16.867Z,89.44
2022-11-24T11:43:10.127Z,89.80
2022-11-24T11:45:45.539Z,88.89
2022-11-24T11:48:32.492Z,87.97
2022-11-24T11:51:26.915Z,88.57
2022-11-24T11:54:11.645Z,87.99
2022-11-24T11:56:45.313Z,88.34
2022-11-24T11:59:21.225Z,88.08
2022-11-24T12:01:56.915Z,88.13
2022-11-24T12:04:50.695Z,89.34
2022-11-24T12:07:36.149Z,89.76
2022-11-24T12:10:20.942Z,89.94
2022-11-24T12:12:50.858Z,90.13
2022-11-24T12:15:52.757Z,89.58
2022-11-24T12:19:14.094Z,90.26
2022-11-24T12:22:06.752Z,90.33
2022-11-24T12:25:23.232Z,89.59
2022-11-24T12:28:11.477Z,89.94
2022-11-24T12:30:47.589Z,90.29
2022-11-24T12:33:28.191Z,90.67
2022-11-24T12:36:22.972Z,90.92
2022-11-24T12:39:24.848Z,91.58
2022-11-24T12:42:21.228Z,92.08
2022-11-24T12:44:54.011Z,92.04
2022-11-24T12:47:47.324Z,92.52
2022-11-24T12:50:19.079Z,92.57
2022-11-24T12:52:58.594Z,92.94
2022-11-24T12:55:28.013Z,93.28
2022-11-24T12:58:19.690Z,92.88
2022-11-24T13:00:55.573Z,93.27
2022-11-24T13:03:36.848Z,92.99
2022-11-24T13:06:23.166Z,93.79
2022-11-24T13:08:50.504Z,93.49
2022-11-24T13:11:23.074Z,93.30
2022-11-24T13:14:01.200Z,93.94
2022-11-24T13:16:44.380Z,94.39
2022-11-24T13:19:24.946Z,93.92
2022-11-24T13:22:09.734Z,94.00
2022-11-24T13:24:39.465Z,94.21
2022-11-24T13:27:16.029Z,94.47
2022-11-24T13:29:48.459Z,94.17
2022-11-24T13:32:15.472Z,94.56
2022-11-24T13:34:50.015Z,94.52
2022-11-24T13:37:33.553Z,94.73
2022-11-24T13:40:11.780Z,94.90
2022-11-24T13:43:02.311Z,94.41
2022-11-24T13:45:41.805Z,93.97
2022-11-24T13:48:21.466Z,94.15
2022-11-24T13:50:53.312Z,94.31
2022-11-24T13:53:47.771Z,93.88
2022-11-24T13:56:17.337Z,94.23
2022-11-24T13:58:47.810Z,93.92
2022-11-24T14:01:22.650Z,93.52
2022-11-24T14:06:55.090Z,92.35
2022-11-24T14:09:25.433Z,92.29
2022-11-24T14:12:16.638Z,91.83
2022-11-24T14:14:46.291Z,92.54
2022-11-24T14:17:20.950Z,91.64
2022-11-24T14:19:50.445Z,91.79
2022-11-24T14:22:24.587Z,91.63
2022-11-24T14:24:57.150Z,91.70
2022-11-24T14:27:37.056Z,91.51
2022-11-24T14:30:09.673Z,91.32
2022-11-24T14:32:37.896Z,91.70
2022-11-24T14:35:24.575Z,90.94
2022-11-24T14:37:51.819Z,90.92
2022-11-24T14:40:40.515Z,91.52
2022-11-24T14:43:36.595Z,90.82
2022-11-24T14:46:10.065Z,90.32
2022-11-24T14:48:39.374Z,91.76
2022-11-24T14:51:11.452Z,91.32
2022-11-24T14:53:45.565Z,91.64
2022-11-24T14:56:37.747Z,91.16
2022-11-24T14:59:21.395Z,91.18
2022-11-24T15:01:48.585Z,91.54
2022-11-24T15:07:27.177Z,91.32
2022-11-24T15:09:59.390Z,91.16
2022-11-24T15:12:42.761Z,91.55
2022-11-24T15:15:15.708Z,91.22
2022-11-24T15:17:48.821Z,91.83
2022-11-24T15:20:32.129Z,91.80
2022-11-24T15:23:20.988Z,91.81
2022-11-24T15:25:50.150Z,91.32
2022-11-24T15:28:17.098Z,91.20
2022-11-24T15:30:44.044Z,91.14
2022-11-24T15:33:16.824Z,91.25
2022-11-24T15:35:44.591Z,91.16
2022-11-24T15:38:12.289Z,90.88
2022-11-24T15:40:40.127Z,90.70
2022-11-24T15:43:22.095Z,90.53
2022-11-24T15:45:49.414Z,90.48
2022-11-24T15:48:18.206Z,89.80
2022-11-24T15:50:46.971Z,90.22
2022-11-24T15:53:28.839Z,88.82
2022-11-24T15:55:59.039Z,89.48
2022-11-24T15:58:26.095Z,87.41
2022-11-24T16:00:53.867Z,87.41
2022-11-24T16:06:10.394Z,86.36
2022-11-24T16:08:37.284Z,86.13
2022-11-24T16:11:04.152Z,85.57
2022-11-24T16:13:31.044Z,85.33
2022-11-24T16:15:58.023Z,85.65
2022-11-24T16:18:25.024Z,85.28
2022-11-24T16:20:51.986Z,85.63
2022-11-24T16:23:19.407Z,86.01
2022-11-24T16:25:46.336Z,86.60
2022-11-24T16:28:13.177Z,86.90
2022-11-24T16:30:40.094Z,87.16
2022-11-24T16:33:06.988Z,87.02
2022-11-24T16:35:34.108Z,87.01
2022-11-24T16:38:01.533Z,87.42
2022-11-24T16:40:28.806Z,87.18
2022-11-24T16:42:58.135Z,87.93
2022-11-24T16:45:25.097Z,87.64
2022-11-24T16:47:52.054Z,87.17
2022-11-24T16:50:18.930Z,86.77
2022-11-24T16:52:45.850Z,87.47
2022-11-24T16:55:14.328Z,87.04
2022-11-24T16:57:41.366Z,87.02
2022-11-24T17:00:09.564Z,86.86
2022-11-24T17:02:36.610Z,86.58
2022-11-24T17:05:03.707Z,86.02
2022-11-24T17:07:31.448Z,86.69
2022-11-24T17:10:00.726Z,86.67
2022-11-24T17:12:27.884Z,87.20
2022-11-24T17:15:24.537Z,87.28
2022-11-24T17:18:08.393Z,87.00
2022-11-24T17:20:31.599Z,86.60
2022-11-24T17:22:58.516Z,86.05
2022-11-24T17:25:25.400Z,86.28
2022-11-24T17:27:52.939Z,86.32
2022-11-24T17:30:19.921Z,86.84
2022-11-24T17:32:46.810Z,85.95
2022-11-24T17:35:13.916Z,86.44
2022-11-24T17:37:41.181Z,86.06
2022-11-24T17:40:27.245Z,85.75
2022-11-24T17:42:58.307Z,86.91
2022-11-24T17:45:25.629Z,85.97
2022-11-24T17:47:52.593Z,86.26
2022-11-24T17:50:25.177Z,86.84
2022-11-24T17:52:53.298Z,86.59
2022-11-24T17:55:20.202Z,85.70
2022-11-24T17:57:47.097Z,86.28
2022-11-24T18:00:14.644Z,86.82
2022-11-24T18:02:42.171Z,86.86
2022-11-24T18:05:09.323Z,86.07
2022-11-24T18:07:37.074Z,86.85
2022-11-24T18:10:04.518Z,86.94
2022-11-24T18:12:32.463Z,86.48
2022-11-24T18:14:59.434Z,86.40
2022-11-24T18:17:26.571Z,85.48
2022-11-24T18:19:53.530Z,86.10
2022-11-24T18:22:36.629Z,85.89
2022-11-24T18:25:07.621Z,84.50
2022-11-24T18:27:34.568Z,85.22
2022-11-24T18:30:01.514Z,84.53
2022-11-24T18:32:28.429Z,84.78
2022-11-24T18:34:55.643Z,84.10
2022-11-24T18:37:22.645Z,84.58
2022-11-24T18:39:49.577Z,84.77
2022-11-24T18:42:17.906Z,84.11
2022-11-24T18:44:48.608Z,84.05
2022-11-24T18:47:18.068Z,83.56
2022-11-24T18:49:44.925Z,84.04
2022-11-24T18:52:11.813Z,84.26
2022-11-24T18:54:39.155Z,83.65
2022-11-24T18:57:06.358Z,83.55
2022-11-24T18:59:33.350Z,84.45
2022-11-24T19:02:00.221Z,84.13
2022-11-24T19:04:27.385Z,83.75
2022-11-24T19:06:54.286Z,83.39
2022-11-24T19:09:22.848Z,83.99
2022-11-24T19:11:49.696Z,84.10
2022-11-24T19:14:19.226Z,84.03
2022-11-24T19:16:48.159Z,83.42
2022-11-24T19:19:17.142Z,84.11
2022-11-24T19:21:44.232Z,84.71
2022-11-24T19:24:13.396Z,84.33
2022-11-24T19:26:40.838Z,83.97
2022-11-24T19:29:08.543Z,84.47
2022-11-24T19:31:36.100Z,84.54
2022-11-24T19:34:03.702Z,83.78
2022-11-24T19:36:30.799Z,84.17
2022-11-24T19:38:58.707Z,84.02
2022-11-24T19:41:30.887Z,83.91
2022-11-24T19:43:58.874Z,84.00
2022-11-24T19:46:28.048Z,83.98
2022-11-24T19:48:57.299Z,83.74
2022-11-24T19:51:30.926Z,83.83
2022-11-24T19:53:58.591Z,84.55
2022-11-24T19:56:27.752Z,84.39
2022-11-24T19:58:56.102Z,84.10
2022-11-24T20:01:31.312Z,84.02
2022-11-24T20:04:01.461Z,84.00
2022-11-24T20:06:34.702Z,84.90
2022-11-24T20:09:01.902Z,83.94
2022-11-24T20:11:28.936Z,84.49
2022-11-24T20:13:56.665Z,83.96
2022-11-24T20:16:26.734Z,84.53
2022-11-24T20:19:02.102Z,83.80
2022-11-24T20:21:32.670Z,83.62
2022-11-24T20:24:02.228Z,84.55
2022-11-24T20:26:32.833Z,84.05
2022-11-24T20:29:00.444Z,84.38
2022-11-24T20:31:39.461Z,85.24
2022-11-24T20:34:07.480Z,84.66
2022-11-24T20:36:36.293Z,84.99
2022-11-24T20:39:06.789Z,85.38
2022-11-24T20:41:36.487Z,84.95
2022-11-24T20:44:07.660Z,84.72
2022-11-24T20:46:38.203Z,84.14
2022-11-24T20:49:07.087Z,84.29
2022-11-24T20:51:37.079Z,84.29
2022-11-24T20:54:07.165Z,83.97
2022-11-24T20:56:36.826Z,84.27
2022-11-24T20:59:04.824Z,83.37
2022-11-24T21:01:38.847Z,83.77
2022-11-24T21:04:08.998Z,82.85
2022-11-24T21:06:36.846Z,83.33
2022-11-24T21:09:04.876Z,83.53
2022-11-24T21:11:32.370Z,83.36
2022-11-24T21:14:00.398Z,83.42
2022-11-24T21:16:30.161Z,83.40
2022-11-24T21:18:59.756Z,83.60
2022-11-24T21:21:34.031Z,83.09
2022-11-24T21:24:02.905Z,83.63
2022-11-24T21:26:30.382Z,83.29
2022-11-24T21:28:58.113Z,83.59
2022-11-24T21:31:26.006Z,83.59
2022-11-24T21:33:54.108Z,83.24
2022-11-24T21:36:23.671Z,83.28
2022-11-24T21:38:52.288Z,83.17
2022-11-24T21:41:19.833Z,83.40
2022-11-24T21:43:46.981Z,84.00
2022-11-24T21:46:14.191Z,84.05
2022-11-24T21:48:42.128Z,83.50
2022-11-24T21:51:15.573Z,83.72
2022-11-24T21:53:43.858Z,83.68
2022-11-24T21:56:13.775Z,83.29
2022-11-24T21:58:48.002Z,83.67
2022-11-24T22:01:17.273Z,82.69
2022-11-24T22:03:44.261Z,82.89
2022-11-24T22:06:11.607Z,82.47
2022-11-24T22:08:38.929Z,82.24
2022-11-24T22:11:07.816Z,82.67
2022-11-24T22:13:34.817Z,82.67
2022-11-24T22:16:07.831Z,82.39
2022-11-24T22:18:38.006Z,82.06
2022-11-24T22:21:06.835Z,81.94
2022-11-24T22:23:35.249Z,82.62
2022-11-24T22:26:04.400Z,82.53
2022-11-24T22:28:35.624Z,82.15
2022-11-24T22:31:11.088Z,82.23
2022-11-24T22:33:38.801Z,82.59
2022-11-24T22:36:05.991Z,82.09
2022-11-24T22:38:33.780Z,82.25
2022-11-24T22:41:20.930Z,81.83
2022-11-24T22:43:47.700Z,82.27
2022-11-24T22:46:17.553Z,82.19
2022-11-24T22:48:45.918Z,82.38
2022-11-24T22:51:15.684Z,82.29
2022-11-24T22:53:51.060Z,82.35
2022-11-24T22:56:19.769Z,81.89
2022-11-24T22:58:47.372Z,82.38
2022-11-24T23:01:16.521Z,82.07
2022-11-24T23:03:44.311Z,82.46
2022-11-24T23:06:25.259Z,82.21
2022-11-24T23:08:52.881Z,82.54
2022-11-24T23:11:27.404Z,82.05
2022-11-24T23:14:00.583Z,82.48
2022-11-24T23:16:29.235Z,82.71
2022-11-24T23:18:56.601Z,82.92
2022-11-24T23:21:28.927Z,82.08
2022-11-24T23:23:56.196Z,82.72
2022-11-24T23:26:25.621Z,82.80
2022-11-24T23:28:52.552Z,82.98
2022-11-24T23:31:24.291Z,82.27
2022-11-24T23:33:51.392Z,82.37
2022-11-24T23:36:20.288Z,82.40
2022-11-24T23:38:48.478Z,82.81
2022-11-24T23:41:20.642Z,82.55
2022-11-24T23:43:48.257Z,82.84
2022-11-24T23:46:20.682Z,83.11
2022-11-24T23:48:48.855Z,83.22
2022-11-24T23:51:17.956Z,83.41
2022-11-24T23:53:45.649Z,83.48
2022-11-24T23:56:15.566Z,83.59
2022-11-24T23:58:43.015Z,83.27
